createdAt,value
2022-10-18T00:01:47.432Z,33.17
2022-10-18T00:04:15.874Z,37.55
2022-10-18T00:06:44.267Z,29.90
2022-10-18T00:09:12.518Z,29.58
2022-10-18T00:11:41.320Z,30.70
2022-10-18T00:14:10.091Z,31.15
2022-10-18T00:16:39.926Z,29.10
2022-10-18T00:19:08.370Z,37.67
2022-10-18T00:21:36.916Z,28.75
2022-10-18T00:24:05.860Z,33.15
2022-10-18T00:26:34.489Z,32.55
2022-10-18T00:29:05.096Z,31.65
2022-10-18T00:31:36.012Z,30.63
2022-10-18T00:34:08.884Z,31.95
2022-10-18T00:36:37.380Z,33.60
2022-10-18T00:39:07.905Z,32.75
2022-10-18T00:41:37.972Z,31.80
2022-10-18T00:44:27.591Z,28.98
2022-10-18T00:46:58.932Z,29.00
2022-10-18T00:49:33.233Z,34.75
2022-10-18T00:52:09.032Z,33.65
2022-10-18T00:54:40.144Z,30.83
2022-10-18T00:57:09.569Z,34.03
2022-10-18T00:59:38.332Z,29.70
2022-10-18T01:02:07.941Z,29.77
2022-10-18T01:04:38.894Z,37.53
2022-10-18T01:07:26.835Z,36.97
2022-10-18T01:10:04.366Z,41.25
2022-10-18T01:12:46.134Z,29.98
2022-10-18T01:15:18.876Z,36.88
2022-10-18T01:17:57.005Z,30.23
2022-10-18T01:20:53.753Z,32.78
2022-10-18T01:23:44.729Z,33.72
2022-10-18T01:26:31.264Z,33.05
2022-10-18T01:29:08.701Z,34.50
2022-10-18T01:31:41.473Z,34.85
2022-10-18T01:34:14.319Z,29.80
2022-10-18T01:36:45.223Z,31.80
2022-10-18T01:39:18.005Z,33.60
2022-10-18T01:41:48.225Z,29.35
2022-10-18T01:44:22.071Z,34.85
2022-10-18T01:46:53.797Z,33.75
2022-10-18T01:49:22.375Z,38.42
2022-10-18T01:51:50.679Z,32.65
2022-10-18T01:54:23.238Z,32.28
2022-10-18T01:56:57.858Z,33.85
2022-10-18T01:59:39.027Z,38.08
2022-10-18T02:02:18.794Z,37.47
2022-10-18T02:04:55.588Z,41.40
2022-10-18T02:07:32.639Z,31.42
2022-10-18T02:10:10.507Z,31.60
2022-10-18T02:12:43.940Z,29.13
2022-10-18T02:15:17.209Z,33.70
2022-10-18T02:17:47.165Z,34.45
2022-10-18T02:20:20.799Z,34.75
2022-10-18T02:22:50.579Z,32.83
2022-10-18T02:25:23.623Z,30.98
2022-10-18T02:27:55.922Z,37.30
2022-10-18T02:30:29.999Z,38.10
2022-10-18T02:33:05.145Z,36.53
2022-10-18T02:35:38.867Z,35.53
2022-10-18T02:38:09.170Z,31.15
2022-10-18T02:40:37.729Z,31.33
2022-10-18T02:43:07.229Z,35.75
2022-10-18T02:45:35.787Z,32.95
2022-10-18T02:48:05.769Z,40.70
2022-10-18T02:50:34.431Z,28.10
2022-10-18T02:53:02.693Z,34.33
2022-10-18T02:55:31.079Z,38.13
2022-10-18T02:57:59.136Z,26.92
2022-10-18T03:00:27.631Z,39.70
2022-10-18T03:02:55.858Z,35.22
2022-10-18T03:05:25.622Z,31.63
2022-10-18T03:07:53.926Z,35.72
2022-10-18T03:10:22.160Z,43.75
2022-10-18T03:12:50.245Z,35.50
2022-10-18T03:15:18.627Z,35.05
2022-10-18T03:17:46.887Z,36.33
2022-10-18T03:20:15.366Z,38.25
2022-10-18T03:22:44.799Z,35.55
2022-10-18T03:25:13.062Z,28.92
2022-10-18T03:27:41.347Z,38.55
2022-10-18T03:30:11.741Z,36.40
2022-10-18T03:32:39.951Z,39.40
2022-10-18T03:35:09.305Z,42.00
2022-10-18T03:37:37.465Z,36.85
2022-10-18T03:40:09.111Z,34.67
2022-10-18T03:42:37.280Z,40.67
2022-10-18T03:45:06.423Z,37.30
2022-10-18T03:47:34.585Z,34.78
2022-10-18T03:50:03.143Z,33.45
2022-10-18T03:52:31.613Z,34.53
2022-10-18T03:55:00.169Z,29.10
2022-10-18T03:57:29.774Z,39.33
2022-10-18T03:59:58.127Z,37.85
2022-10-18T04:02:27.530Z,36.67
2022-10-18T04:04:55.861Z,39.22
2022-10-18T04:07:23.960Z,39.65
2022-10-18T04:09:52.252Z,36.78
2022-10-18T04:12:20.616Z,36.42
2022-10-18T04:14:50.756Z,37.00
2022-10-18T04:17:18.985Z,37.80
2022-10-18T04:19:47.396Z,40.30
2022-10-18T04:22:16.029Z,33.72
2022-10-18T04:24:44.325Z,38.75
2022-10-18T04:27:12.514Z,41.97
2022-10-18T04:29:40.814Z,40.83
2022-10-18T04:32:10.265Z,39.97
2022-10-18T04:34:38.701Z,38.45
2022-10-18T04:37:07.091Z,47.15
2022-10-18T04:39:35.382Z,38.20
2022-10-18T04:42:03.922Z,41.90
2022-10-18T04:44:32.355Z,40.15
2022-10-18T04:47:00.463Z,43.50
2022-10-18T04:49:30.616Z,38.22
2022-10-18T04:51:58.799Z,39.10
2022-10-18T04:54:28.621Z,38.00
2022-10-18T04:56:57.003Z,37.83
2022-10-18T04:59:25.314Z,42.28
2022-10-18T05:01:53.652Z,37.22
2022-10-18T05:04:22.087Z,38.90
2022-10-18T05:06:51.559Z,43.80
2022-10-18T05:09:22.250Z,41.63
2022-10-18T05:11:50.387Z,47.47
2022-10-18T05:14:19.152Z,42.80
2022-10-18T05:16:47.290Z,33.05
2022-10-18T05:19:15.622Z,31.35
2022-10-18T05:21:43.779Z,39.38
2022-10-18T05:24:13.978Z,33.08
2022-10-18T05:26:42.171Z,41.55
2022-10-18T05:29:10.619Z,35.20
2022-10-18T05:31:38.823Z,36.33
2022-10-18T05:34:07.331Z,32.35
2022-10-18T05:36:35.724Z,32.72
2022-10-18T05:39:05.269Z,31.33
2022-10-18T05:41:34.756Z,29.83
2022-10-18T05:44:05.424Z,33.50
2022-10-18T05:46:33.661Z,37.38
2022-10-18T05:49:01.991Z,33.50
2022-10-18T05:51:30.424Z,32.60
2022-10-18T05:53:58.867Z,37.70
2022-10-18T05:56:27.262Z,33.55
2022-10-18T05:58:57.160Z,37.90
2022-10-18T06:01:25.370Z,34.33
2022-10-18T06:03:53.652Z,29.77
2022-10-18T06:06:22.272Z,32.15
2022-10-18T06:08:51.165Z,29.92
2022-10-18T06:11:21.574Z,29.85
2022-10-18T06:13:51.838Z,36.63
2022-10-18T06:16:24.808Z,37.20
2022-10-18T06:19:01.920Z,35.40
2022-10-18T06:21:30.236Z,34.25
2022-10-18T06:24:00.781Z,34.75
2022-10-18T06:26:29.451Z,38.35
2022-10-18T06:28:57.850Z,37.10
2022-10-18T06:31:27.452Z,32.35
2022-10-18T06:33:57.979Z,33.63
2022-10-18T06:36:26.372Z,42.30
2022-10-18T06:38:56.570Z,45.20
2022-10-18T06:41:25.160Z,45.55
2022-10-18T06:43:57.682Z,41.25
2022-10-18T06:46:27.483Z,36.63
2022-10-18T06:48:57.600Z,33.55
2022-10-18T06:51:25.702Z,38.63
2022-10-18T06:54:06.215Z,44.08
2022-10-18T06:56:42.189Z,41.08
2022-10-18T06:59:10.604Z,39.38
2022-10-18T07:01:40.197Z,47.35
2022-10-18T07:04:08.914Z,44.85
2022-10-18T07:06:37.037Z,37.97
2022-10-18T07:09:05.490Z,37.38
2022-10-18T07:11:33.695Z,32.10
2022-10-18T07:14:04.946Z,36.10
2022-10-18T07:16:34.550Z,39.55
2022-10-18T07:19:04.503Z,35.38
2022-10-18T07:21:32.715Z,28.92
2022-10-18T07:24:01.537Z,34.75
2022-10-18T07:26:31.286Z,32.85
2022-10-18T07:29:01.548Z,34.20
2022-10-18T07:31:31.031Z,26.35
2022-10-18T07:33:59.453Z,32.45
2022-10-18T07:36:28.896Z,27.35
2022-10-18T07:38:57.523Z,35.13
2022-10-18T07:41:26.001Z,28.17
2022-10-18T07:43:54.759Z,36.30
2022-10-18T07:46:23.785Z,38.30
2022-10-18T07:48:52.594Z,30.67
2022-10-18T07:51:21.574Z,32.42
2022-10-18T07:53:51.570Z,29.55
2022-10-18T07:56:21.815Z,28.90
2022-10-18T07:58:52.261Z,27.08
2022-10-18T08:01:21.390Z,30.45
2022-10-18T08:03:49.911Z,29.00
2022-10-18T08:06:19.859Z,30.05
2022-10-18T08:08:48.780Z,30.52
2022-10-18T08:11:20.443Z,29.70
2022-10-18T08:13:49.602Z,31.55
2022-10-18T08:16:20.114Z,29.20
2022-10-18T08:18:48.898Z,26.23
2022-10-18T08:21:18.374Z,29.38
2022-10-18T08:23:47.153Z,32.25
2022-10-18T08:26:19.225Z,26.60
2022-10-18T08:28:58.400Z,31.67
2022-10-18T08:31:35.885Z,26.58
2022-10-18T08:34:04.185Z,28.52
2022-10-18T08:36:32.513Z,27.83
2022-10-18T08:39:00.894Z,29.45
2022-10-18T08:41:51.005Z,41.67
2022-10-18T08:44:23.167Z,25.05
2022-10-18T08:46:56.628Z,25.10
2022-10-18T08:49:29.083Z,32.22
2022-10-18T08:51:58.564Z,30.38
2022-10-18T08:54:35.702Z,26.65
2022-10-18T08:57:12.446Z,26.20
2022-10-18T08:59:42.834Z,27.23
2022-10-18T09:02:21.410Z,28.38
2022-10-18T09:04:55.891Z,38.78
2022-10-18T09:07:51.581Z,29.90
2022-10-18T09:10:26.835Z,31.77
2022-10-18T09:13:16.439Z,29.02
2022-10-18T09:15:50.064Z,33.95
2022-10-18T09:18:36.779Z,32.58
2022-10-18T09:21:15.552Z,31.20
2022-10-18T09:23:48.571Z,33.40
2022-10-18T09:26:20.041Z,33.60
2022-10-18T09:29:03.729Z,29.73
2022-10-18T09:31:42.084Z,36.20
2022-10-18T09:34:16.031Z,29.73
2022-10-18T09:36:45.653Z,31.23
2022-10-18T09:39:16.075Z,33.40
2022-10-18T09:41:49.752Z,31.08
2022-10-18T09:44:24.045Z,32.17
2022-10-18T09:46:58.825Z,33.47
2022-10-18T09:49:31.036Z,28.55
2022-10-18T09:52:01.954Z,35.28
2022-10-18T09:54:34.034Z,33.83
2022-10-18T09:57:07.615Z,37.33
2022-10-18T09:59:41.447Z,40.72
2022-10-18T10:02:14.492Z,37.67
2022-10-18T10:04:42.625Z,35.40
2022-10-18T10:07:14.663Z,37.13
2022-10-18T10:09:46.852Z,40.40
2022-10-18T10:12:31.296Z,43.38
2022-10-18T10:15:14.643Z,42.25
2022-10-18T10:17:44.373Z,45.63
2022-10-18T10:20:19.910Z,44.47
2022-10-18T10:22:50.356Z,54.28
2022-10-18T10:25:26.607Z,48.95
2022-10-18T10:27:55.863Z,45.60
2022-10-18T10:30:31.284Z,44.85
2022-10-18T10:32:59.871Z,41.30
2022-10-18T10:38:27.414Z,48.05
2022-10-18T10:40:56.812Z,49.03
2022-10-18T10:43:43.531Z,44.67
2022-10-18T10:46:14.970Z,40.97
2022-10-18T10:48:50.217Z,43.50
2022-10-18T10:51:28.804Z,45.45
2022-10-18T10:54:03.175Z,37.25
2022-10-18T10:56:33.685Z,39.03
2022-10-18T10:59:11.124Z,37.60
2022-10-18T11:01:41.667Z,34.80
2022-10-18T11:04:28.529Z,28.33
2022-10-18T11:07:11.367Z,24.15
2022-10-18T11:09:49.117Z,27.98
2022-10-18T11:12:26.909Z,25.38
2022-10-18T11:15:02.805Z,22.45
2022-10-18T11:17:40.676Z,25.00
2022-10-18T11:20:21.610Z,22.20
2022-10-18T11:23:01.879Z,25.77
2022-10-18T11:25:48.698Z,20.90
2022-10-18T11:28:27.207Z,20.00
2022-10-18T11:31:08.915Z,19.05
2022-10-18T11:34:08.128Z,20.08
2022-10-18T11:36:56.262Z,22.73
2022-10-18T11:39:42.203Z,21.88
2022-10-18T11:42:20.373Z,20.50
2022-10-18T11:45:00.798Z,22.05
2022-10-18T11:47:37.001Z,19.63
2022-10-18T11:50:21.020Z,20.02
2022-10-18T11:53:02.012Z,16.20
2022-10-18T11:55:46.014Z,17.55
2022-10-18T11:58:32.411Z,20.55
2022-10-18T12:01:13.592Z,22.10
2022-10-18T12:03:52.681Z,20.58
2022-10-18T12:06:26.997Z,21.63
2022-10-18T12:09:00.534Z,16.85
2022-10-18T12:11:32.859Z,15.23
2022-10-18T12:14:03.850Z,19.02
2022-10-18T12:16:50.865Z,14.75
2022-10-18T12:19:26.259Z,21.98
2022-10-18T12:21:59.082Z,14.73
2022-10-18T12:24:31.345Z,14.30
2022-10-18T12:27:02.374Z,14.38
2022-10-18T12:29:36.748Z,8.75
2022-10-18T12:32:09.953Z,15.98
2022-10-18T12:34:44.064Z,13.52
2022-10-18T12:37:39.377Z,12.85
2022-10-18T12:40:18.491Z,13.13
2022-10-18T12:42:51.514Z,17.10
2022-10-18T12:45:33.131Z,13.57
2022-10-18T12:48:02.982Z,16.60
2022-10-18T12:50:35.151Z,13.27
2022-10-18T12:53:08.564Z,12.65
2022-10-18T12:55:38.744Z,12.45
2022-10-18T12:58:29.794Z,18.10
2022-10-18T13:01:03.717Z,18.10
2022-10-18T13:04:02.215Z,13.90
2022-10-18T13:07:04.350Z,18.70
2022-10-18T13:09:35.766Z,14.70
2022-10-18T13:12:48.231Z,15.30
2022-10-18T13:15:36.137Z,18.55
2022-10-18T13:18:09.587Z,13.07
2022-10-18T13:20:41.761Z,17.85
2022-10-18T13:23:28.306Z,21.42
2022-10-18T13:26:05.386Z,8.32
2022-10-18T13:28:42.877Z,15.43
2022-10-18T13:31:20.183Z,13.77
2022-10-18T13:33:49.034Z,20.42
2022-10-18T13:36:25.779Z,17.25
2022-10-18T13:39:03.435Z,13.35
2022-10-18T13:41:57.811Z,23.85
2022-10-18T13:44:30.461Z,19.42
2022-10-18T13:47:35.440Z,15.00
2022-10-18T13:50:29.060Z,14.73
2022-10-18T13:53:36.962Z,12.55
2022-10-18T13:56:26.241Z,19.23
2022-10-18T13:59:25.335Z,18.13
2022-10-18T14:02:15.141Z,15.85
2022-10-18T14:05:23.213Z,17.90
2022-10-18T14:07:59.109Z,21.05
2022-10-18T14:10:50.130Z,19.27
2022-10-18T14:13:26.287Z,19.92
2022-10-18T14:15:59.537Z,17.83
2022-10-18T14:18:33.280Z,17.08
2022-10-18T14:21:21.985Z,24.17
2022-10-18T14:23:52.149Z,22.13
2022-10-18T14:26:22.657Z,20.95
2022-10-18T14:29:04.134Z,23.10
2022-10-18T14:31:32.836Z,20.55
2022-10-18T14:34:03.550Z,17.75
2022-10-18T14:36:38.262Z,22.88
2022-10-18T14:39:08.558Z,27.25
2022-10-18T14:41:38.466Z,20.92
2022-10-18T14:44:19.527Z,23.35
2022-10-18T14:46:49.537Z,30.02
2022-10-18T14:49:21.012Z,24.48
2022-10-18T14:51:51.570Z,27.65
2022-10-18T14:54:24.012Z,22.08
2022-10-18T14:56:54.989Z,26.35
2022-10-18T14:59:25.752Z,30.75
2022-10-18T15:01:56.629Z,21.60
2022-10-18T15:04:32.643Z,18.65
2022-10-18T15:07:03.087Z,29.42
2022-10-18T15:09:34.035Z,26.13
2022-10-18T15:12:04.108Z,21.55
2022-10-18T15:14:33.234Z,24.75
2022-10-18T15:17:05.545Z,20.83
2022-10-18T15:19:39.260Z,19.45
2022-10-18T15:25:18.670Z,26.27
2022-10-18T15:27:49.869Z,24.77
2022-10-18T15:30:23.886Z,19.55
2022-10-18T15:32:54.511Z,17.67
2022-10-18T15:35:28.244Z,28.10
2022-10-18T15:38:00.665Z,24.25
2022-10-18T15:40:36.244Z,23.65
2022-10-18T15:43:06.909Z,22.50
2022-10-18T15:45:38.296Z,23.92
2022-10-18T15:48:22.738Z,22.75
2022-10-18T15:50:53.671Z,27.80
2022-10-18T15:53:33.024Z,24.92
2022-10-18T15:56:04.335Z,31.65
2022-10-18T15:58:40.196Z,33.63
2022-10-18T16:01:16.602Z,31.63
2022-10-18T16:03:46.484Z,26.45
2022-10-18T16:06:18.392Z,37.13
2022-10-18T16:08:48.234Z,45.08
2022-10-18T16:11:18.159Z,33.50
2022-10-18T16:13:47.815Z,45.83
2022-10-18T16:16:19.032Z,41.63
2022-10-18T16:18:48.294Z,34.97
2022-10-18T16:21:24.035Z,46.33
2022-10-18T16:23:52.223Z,41.47
2022-10-18T16:26:21.489Z,34.13
2022-10-18T16:28:51.053Z,34.75
2022-10-18T16:31:22.102Z,39.13
2022-10-18T16:33:51.709Z,40.95
2022-10-18T16:36:23.054Z,35.42
2022-10-18T16:38:51.866Z,38.83
2022-10-18T16:41:20.347Z,32.75
2022-10-18T16:43:49.808Z,33.75
2022-10-18T16:46:20.525Z,40.75
2022-10-18T16:48:50.094Z,39.00
2022-10-18T16:51:19.160Z,33.03
2022-10-18T16:53:48.752Z,31.02
2022-10-18T16:56:18.717Z,30.27
2022-10-18T16:58:47.098Z,35.25
2022-10-18T17:01:17.577Z,35.65
2022-10-18T17:03:46.457Z,31.02
2022-10-18T17:06:17.478Z,23.67
2022-10-18T17:08:46.328Z,28.75
2022-10-18T17:11:18.126Z,35.45
2022-10-18T17:13:46.603Z,30.33
2022-10-18T17:16:26.540Z,24.27
2022-10-18T17:18:54.994Z,18.95
2022-10-18T17:21:23.731Z,32.78
2022-10-18T17:23:51.928Z,17.00
2022-10-18T17:26:28.950Z,16.10
2022-10-18T17:29:01.785Z,23.55
2022-10-18T17:31:31.327Z,19.77
2022-10-18T17:34:01.813Z,13.38
2022-10-18T17:36:31.309Z,17.80
2022-10-18T17:38:59.616Z,14.23
2022-10-18T17:41:29.613Z,14.23
2022-10-18T17:43:58.023Z,13.02
2022-10-18T17:46:26.723Z,16.20
2022-10-18T17:48:54.969Z,15.73
2022-10-18T17:51:24.279Z,18.40
2022-10-18T17:53:52.600Z,11.75
2022-10-18T17:56:21.073Z,18.60
2022-10-18T17:58:53.104Z,16.27
2022-10-18T18:01:23.305Z,17.83
2022-10-18T18:03:56.457Z,14.55
2022-10-18T18:06:30.821Z,15.55
2022-10-18T18:09:00.254Z,16.38
2022-10-18T18:11:29.566Z,14.68
2022-10-18T18:13:59.930Z,14.45
2022-10-18T18:16:30.236Z,16.45
2022-10-18T18:18:59.862Z,15.27
2022-10-18T18:21:28.676Z,17.00
2022-10-18T18:23:57.301Z,13.02
2022-10-18T18:26:25.806Z,17.58
2022-10-18T18:28:54.682Z,13.82
2022-10-18T18:31:27.585Z,16.17
2022-10-18T18:33:59.300Z,22.02
2022-10-18T18:36:29.937Z,13.35
2022-10-18T18:38:58.168Z,18.38
2022-10-18T18:41:28.084Z,20.98
2022-10-18T18:43:58.320Z,16.75
2022-10-18T18:46:30.172Z,17.30
2022-10-18T18:48:59.276Z,21.25
2022-10-18T18:51:28.062Z,16.88
2022-10-18T18:53:56.252Z,14.45
2022-10-18T18:56:26.745Z,19.00
2022-10-18T18:58:55.188Z,16.90
2022-10-18T19:01:25.613Z,13.20
2022-10-18T19:03:57.012Z,15.20
2022-10-18T19:06:27.219Z,16.40
2022-10-18T19:09:00.876Z,17.35
2022-10-18T19:11:32.371Z,17.27
2022-10-18T19:14:01.691Z,16.52
2022-10-18T19:16:32.117Z,17.83
2022-10-18T19:19:04.900Z,13.95
2022-10-18T19:21:35.352Z,14.38
2022-10-18T19:24:05.161Z,15.25
2022-10-18T19:26:36.730Z,19.75
2022-10-18T19:29:09.298Z,13.07
2022-10-18T19:31:38.957Z,13.18
2022-10-18T19:34:10.932Z,14.07
2022-10-18T19:36:40.432Z,13.85
2022-10-18T19:39:10.563Z,20.33
2022-10-18T19:41:39.397Z,16.08
2022-10-18T19:44:08.335Z,16.70
2022-10-18T19:46:36.800Z,15.07
2022-10-18T19:49:05.107Z,13.68
2022-10-18T19:51:35.026Z,22.00
2022-10-18T19:54:03.583Z,14.10
2022-10-18T19:56:32.429Z,16.08
2022-10-18T19:59:01.237Z,18.08
2022-10-18T20:01:30.616Z,18.85
2022-10-18T20:03:59.524Z,21.65
2022-10-18T20:06:28.232Z,18.85
2022-10-18T20:08:58.277Z,17.90
2022-10-18T20:11:28.600Z,16.35
2022-10-18T20:13:57.679Z,19.27
2022-10-18T20:16:28.863Z,17.25
2022-10-18T20:18:58.230Z,20.02
2022-10-18T20:21:28.627Z,17.38
2022-10-18T20:23:58.369Z,16.75
2022-10-18T20:26:26.895Z,21.60
2022-10-18T20:28:57.869Z,19.50
2022-10-18T20:31:28.038Z,16.95
2022-10-18T20:33:57.823Z,20.70
2022-10-18T20:36:27.471Z,18.17
2022-10-18T20:38:56.307Z,20.35
2022-10-18T20:41:28.076Z,21.02
2022-10-18T20:43:58.572Z,19.13
2022-10-18T20:46:27.184Z,18.98
2022-10-18T20:48:55.652Z,17.80
2022-10-18T20:51:24.577Z,16.45
2022-10-18T20:53:53.501Z,15.48
2022-10-18T20:56:23.624Z,19.73
2022-10-18T20:58:56.016Z,18.17
2022-10-18T21:01:26.329Z,21.30
2022-10-18T21:03:56.078Z,20.10
2022-10-18T21:06:26.567Z,16.58
2022-10-18T21:08:56.044Z,24.08
2022-10-18T21:11:25.314Z,19.85
2022-10-18T21:13:56.018Z,21.95
2022-10-18T21:16:24.612Z,22.08
2022-10-18T21:18:52.834Z,16.50
2022-10-18T21:21:23.803Z,31.73
2022-10-18T21:23:52.897Z,19.90
2022-10-18T21:26:23.459Z,17.75
2022-10-18T21:28:52.749Z,18.90
2022-10-18T21:31:24.841Z,18.13
2022-10-18T21:33:55.323Z,18.33
2022-10-18T21:36:24.456Z,19.73
2022-10-18T21:38:53.475Z,21.73
2022-10-18T21:41:22.795Z,17.05
2022-10-18T21:43:52.698Z,20.25
2022-10-18T21:46:24.460Z,26.05
2022-10-18T21:48:54.337Z,18.15
2022-10-18T21:51:25.420Z,17.55
2022-10-18T21:53:55.740Z,18.77
2022-10-18T21:56:26.283Z,20.55
2022-10-18T21:58:54.734Z,14.52
2022-10-18T22:01:26.890Z,23.45
2022-10-18T22:03:57.762Z,22.48
2022-10-18T22:06:29.400Z,26.67
2022-10-18T22:08:59.520Z,23.05
2022-10-18T22:11:30.864Z,19.67
2022-10-18T22:13:59.998Z,23.27
2022-10-18T22:16:29.896Z,22.75
2022-10-18T22:18:59.840Z,27.83
2022-10-18T22:21:29.331Z,21.33
2022-10-18T22:23:59.247Z,20.48
2022-10-18T22:26:29.796Z,25.00
2022-10-18T22:29:00.381Z,24.55
2022-10-18T22:31:32.212Z,26.52
2022-10-18T22:34:03.131Z,21.35
2022-10-18T22:36:32.405Z,24.00
2022-10-18T22:39:00.962Z,19.27
2022-10-18T22:41:29.436Z,22.73
2022-10-18T22:43:59.760Z,25.83
2022-10-18T22:46:32.797Z,24.27
2022-10-18T22:49:01.283Z,20.23
2022-10-18T22:51:29.796Z,24.95
2022-10-18T22:53:58.073Z,25.58
2022-10-18T22:56:26.596Z,22.90
2022-10-18T22:58:54.750Z,22.83
2022-10-18T23:01:24.531Z,17.40
2022-10-18T23:03:58.782Z,25.45
2022-10-18T23:06:28.986Z,18.38
2022-10-18T23:08:59.096Z,26.27
2022-10-18T23:11:29.054Z,22.20
2022-10-18T23:13:57.502Z,26.45
2022-10-18T23:16:26.089Z,20.63
2022-10-18T23:18:58.388Z,22.35
2022-10-18T23:21:29.050Z,21.52
2022-10-18T23:23:58.029Z,24.50
2022-10-18T23:26:28.665Z,21.95
2022-10-18T23:28:57.222Z,23.25
2022-10-18T23:31:28.427Z,24.30
2022-10-18T23:33:59.726Z,22.20
2022-10-18T23:36:28.633Z,28.80
2022-10-18T23:38:57.018Z,20.83
2022-10-18T23:41:26.502Z,24.90
2022-10-18T23:43:55.229Z,26.98
2022-10-18T23:46:23.888Z,24.88
2022-10-18T23:48:52.248Z,24.75
2022-10-18T23:51:21.966Z,19.15
2022-10-18T23:53:50.211Z,22.10
2022-10-18T23:56:19.160Z,25.95
2022-10-18T23:58:47.717Z,23.25
